Library, Pennsylvania
Current Conditions -  °F | °C
As of 1:53 AM on Sunday 26 Oct 2014 (Local Time) from KAGC Reporting Station
Clear Clear  
Wind Chill: 55°   Ceiling: Unl
Heat Index: 55°   Visibility: 10mi
Dew Point: 29°   Wind: 12mph
Humidity: 37%   Direction: 310°NW
Pressure: 29.79"   Gusts: 20mph
Location:  40.29°N, 80.01°W
Report Text: KAGC 260553Z AUTO 31010G17KT 10SM CLR 13/M02 A2979 RMK AO2 SLP088 T01281017 10167 20128 53008 TSNO
Loading
Personal Weather Stations






























Interactive Weather Map
Tropical Storm Tracking
New forecast layout! Learn more

10-Day Weather Forecast

Advertisements
Track Severe Weather on mobile